Time,TemperatureF,DewpointF,PressureIn,WindDirection,WindDirectionDegrees,WindSpeedMPH,WindSpeedGustMPH,Humidity,HourlyPrecipIn,Conditions,Clouds,dailyrainin,SoftwareType,DateUTC
2013-01-02 06:42:00,8.0,7.0,-100.00,North,5,3.0,5.0,95,-99.99,,,-99.99,,2013-01-02 11:42:00,
2013-01-02 06:52:00,8.0,7.0,-100.00,North,5,3.0,5.0,95,-99.99,,,-99.99,,2013-01-02 11:52:00,
2013-01-02 06:53:00,7.0,6.0,-100.00,North,5,2.0,5.0,95,-99.99,,,-99.99,,2013-01-02 11:53:00,
2013-01-02 07:12:00,7.0,6.0,-100.00,North,5,4.0,4.0,95,-99.99,,,-99.99,,2013-01-02 12:12:00,
2013-01-02 07:22:00,7.0,6.0,-100.00,North,5,4.0,4.0,95,-99.99,,,-99.99,,2013-01-02 12:22:00,
2013-01-02 07:33:00,7.0,6.0,-100.00,North,5,2.0,5.0,95,-99.99,,,-99.99,,2013-01-02 12:33:00,
2013-01-02 07:43:00,7.0,6.0,-100.00,North,5,2.0,5.0,95,-99.99,,,-99.99,,2013-01-02 12:43:00,
2013-01-02 08:13:00,6.0,5.0,-100.00,North,5,2.0,4.0,94,-99.99,,,-99.99,,2013-01-02 13:13:00,
2013-01-02 08:22:00,6.0,5.0,-100.00,North,5,2.0,4.0,94,-99.99,,,-99.99,,2013-01-02 13:22:00,
2013-01-02 10:12:00,11.0,9.0,-100.00,North,5,1.0,4.0,91,-99.99,,,-99.99,,2013-01-02 15:12:00,
2013-01-02 10:23:00,11.0,9.0,-100.00,North,5,1.0,4.0,91,-99.99,,,-99.99,,2013-01-02 15:23:00,
2013-01-02 11:43:00,17.0,10.0,-100.00,North,5,3.0,5.0,70,-99.99,,,-99.99,,2013-01-02 16:43:00,
2013-01-02 11:53:00,17.0,10.0,-100.00,North,5,3.0,5.0,70,-99.99,,,-99.99,,2013-01-02 16:53:00,
2013-01-02 13:00:00,21.0,7.0,-100.00,North,5,2.0,6.0,53,-99.99,,,-99.99,,2013-01-02 18:00:00,
2013-01-02 13:43:00,21.0,7.0,-100.00,North,5,2.0,6.0,53,-99.99,,,-99.99,,2013-01-02 18:43:00,
2013-01-02 13:53:00,21.0,7.0,-100.00,North,5,2.0,6.0,53,-99.99,,,-99.99,,2013-01-02 18:53:00,
2013-01-02 16:13:00,19.0,4.0,-100.00,North,5,6.0,7.0,51,-99.99,,,-99.99,,2013-01-02 21:13:00,
2013-01-02 16:23:00,19.0,4.0,-100.00,North,5,6.0,7.0,51,-99.99,,,-99.99,,2013-01-02 21:23:00,
2013-01-02 17:32:00,16.0,4.0,-100.00,North,5,4.0,6.0,58,-99.99,,,-99.99,,2013-01-02 22:32:00,
2013-01-02 17:43:00,16.0,4.0,-100.00,North,5,4.0,6.0,58,-99.99,,,-99.99,,2013-01-02 22:43:00,
2013-01-02 17:52:00,16.0,4.0,-100.00,North,5,4.0,6.0,58,-99.99,,,-99.99,,2013-01-02 22:52:00,
2013-01-02 18:13:00,16.0,4.0,-100.00,North,5,2.0,4.0,61,-99.99,,,-99.99,,2013-01-02 23:13:00,
2013-01-02 18:23:00,16.0,4.0,-100.00,North,5,2.0,4.0,61,-99.99,,,-99.99,,2013-01-02 23:23:00,
2013-01-02 18:43:00,15.0,4.0,-100.00,North,5,2.0,4.0,61,-99.99,,,-99.99,,2013-01-02 23:43:00,
2013-01-02 18:52:00,15.0,4.0,-100.00,North,5,2.0,4.0,61,-99.99,,,-99.99,,2013-01-02 23:52:00,
2013-01-02 19:12:00,14.0,3.0,-100.00,North,5,2.0,4.0,61,-99.99,,,-99.99,,2013-01-03 00:12:00,
2013-01-02 19:22:00,14.0,3.0,-100.00,North,5,2.0,4.0,61,-99.99,,,-99.99,,2013-01-03 00:22:00,
2013-01-02 19:42:00,13.0,2.0,-100.00,North,5,2.0,4.0,63,-99.99,,,-99.99,,2013-01-03 00:42:00,
2013-01-02 19:52:00,13.0,2.0,-100.00,North,5,2.0,4.0,63,-99.99,,,-99.99,,2013-01-03 00:52:00,
2013-01-02 20:12:00,10.0,2.0,-100.00,North,5,3.0,4.0,67,-99.99,,,-99.99,,2013-01-03 01:12:00,
2013-01-02 20:23:00,10.0,2.0,-100.00,North,5,3.0,4.0,67,-99.99,,,-99.99,,2013-01-03 01:23:00,
2013-01-02 20:43:00,10.0,3.0,-100.00,North,5,5.0,6.0,70,-99.99,,,-99.99,,2013-01-03 01:43:00,
2013-01-02 20:52:00,10.0,3.0,-100.00,North,5,5.0,6.0,70,-99.99,,,-99.99,,2013-01-03 01:52:00,
2013-01-02 21:12:00,11.0,4.0,-100.00,North,5,4.0,6.0,69,-99.99,,,-99.99,,2013-01-03 02:12:00,
2013-01-02 21:23:00,11.0,4.0,-100.00,North,5,4.0,6.0,69,-99.99,,,-99.99,,2013-01-03 02:23:00,
2013-01-02 21:33:00,13.0,4.0,-100.00,North,5,6.0,7.0,68,-99.99,,,-99.99,,2013-01-03 02:33:00,
2013-01-02 21:43:00,13.0,4.0,-100.00,North,5,6.0,7.0,68,-99.99,,,-99.99,,2013-01-03 02:43:00,
2013-01-02 21:52:00,13.0,4.0,-100.00,North,5,6.0,7.0,68,-99.99,,,-99.99,,2013-01-03 02:52:00,
2013-01-02 22:47:00,13.0,5.0,-100.00,North,5,6.0,9.0,69,-99.99,,,-99.99,,2013-01-03 03:47:00,
2013-01-02 22:52:00,13.0,5.0,-100.00,North,5,6.0,9.0,69,-99.99,,,-99.99,,2013-01-03 03:52:00,
2013-01-02 23:12:00,13.0,5.0,-100.00,North,5,6.0,7.0,69,-99.99,,,-99.99,,2013-01-03 04:12:00,
2013-01-02 23:22:00,13.0,5.0,-100.00,North,5,6.0,7.0,69,-99.99,,,-99.99,,2013-01-03 04:22:00,
2013-01-02 23:42:00,12.0,5.0,-100.00,North,5,6.0,9.0,71,-99.99,,,-99.99,,2013-01-03 04:42:00,
2013-01-02 23:52:00,12.0,5.0,-100.00,North,5,6.0,9.0,71,-99.99,,,-99.99,,2013-01-03 04:52:00,